sensor_id;sensor_type;location;lat;lon;timestamp;P1;P2;P0
29062;PMS5003;71206;48.564;-123.458;2023-11-18T00:02:16;10;9;
29062;PMS5003;71206;48.564;-123.458;2023-11-18T00:04:37;10;9;
29062;PMS5003;71206;48.564;-123.458;2023-11-18T00:07:02;12;12;
29062;PMS5003;71206;48.564;-123.458;2023-11-18T00:09:27;10;8;
29062;PMS5003;71206;48.564;-123.458;2023-11-18T00:11:52;18;15;
29062;PMS5003;71206;48.564;-123.458;2023-11-18T00:14:18;13;13;
29062;PMS5003;71206;48.564;-123.458;2023-11-18T00:16:43;24;21;
29062;PMS5003;71206;48.564;-123.458;2023-11-18T00:19:08;19;19;
29062;PMS5003;71206;48.564;-123.458;2023-11-18T00:21:34;25;21;
29062;PMS5003;71206;48.564;-123.458;2023-11-18T00:24:00;13;12;
29062;PMS5003;71206;48.564;-123.458;2023-11-18T00:26:25;19;18;
29062;PMS5003;71206;48.564;-123.458;2023-11-18T00:28:52;19;17;
29062;PMS5003;71206;48.564;-123.458;2023-11-18T00:31:15;17;17;
29062;PMS5003;71206;48.564;-123.458;2023-11-18T00:33:41;17;17;
29062;PMS5003;71206;48.564;-123.458;2023-11-18T00:36:07;22;22;
29062;PMS5003;71206;48.564;-123.458;2023-11-18T00:38:32;18;14;
29062;PMS5003;71206;48.564;-123.458;2023-11-18T00:40:57;23;22;
29062;PMS5003;71206;48.564;-123.458;2023-11-18T00:43:22;71;64;
29062;PMS5003;71206;48.564;-123.458;2023-11-18T00:45:47;49;42;
29062;PMS5003;71206;48.564;-123.458;2023-11-18T00:48:13;62;52;
29062;PMS5003;71206;48.564;-123.458;2023-11-18T00:50:38;63;59;
29062;PMS5003;71206;48.564;-123.458;2023-11-18T00:53:04;36;33;
29062;PMS5003;71206;48.564;-123.458;2023-11-18T00:55:29;31;25;
29062;PMS5003;71206;48.564;-123.458;2023-11-18T00:57:54;30;25;
29062;PMS5003;71206;48.564;-123.458;2023-11-18T01:00:19;24;22;
29062;PMS5003;71206;48.564;-123.458;2023-11-18T01:02:44;28;22;
29062;PMS5003;71206;48.564;-123.458;2023-11-18T01:05:11;31;24;
29062;PMS5003;71206;48.564;-123.458;2023-11-18T01:07:36;21;19;
29062;PMS5003;71206;48.564;-123.458;2023-11-18T01:10:03;19;19;
29062;PMS5003;71206;48.564;-123.458;2023-11-18T01:12:27;37;31;
29062;PMS5003;71206;48.564;-123.458;2023-11-18T01:14:54;32;26;
29062;PMS5003;71206;48.564;-123.458;2023-11-18T01:17:17;25;22;
29062;PMS5003;71206;48.564;-123.458;2023-11-18T01:19:43;27;23;
29062;PMS5003;71206;48.564;-123.458;2023-11-18T01:22:08;34;31;
29062;PMS5003;71206;48.564;-123.458;2023-11-18T01:24:34;41;39;
29062;PMS5003;71206;48.564;-123.458;2023-11-18T01:26:59;47;38;
29062;PMS5003;71206;48.564;-123.458;2023-11-18T01:29:25;21;20;
29062;PMS5003;71206;48.564;-123.458;2023-11-18T01:31:52;20;20;
29062;PMS5003;71206;48.564;-123.458;2023-11-18T01:34:16;17;15;
29062;PMS5003;71206;48.564;-123.458;2023-11-18T01:36:42;12;11;
29062;PMS5003;71206;48.564;-123.458;2023-11-18T01:39:09;18;16;
29062;PMS5003;71206;48.564;-123.458;2023-11-18T01:41:32;51;40;
29062;PMS5003;71206;48.564;-123.458;2023-11-18T01:43:56;22;21;
29062;PMS5003;71206;48.564;-123.458;2023-11-18T01:46:24;16;15;
29062;PMS5003;71206;48.564;-123.458;2023-11-18T01:48:48;18;18;
29062;PMS5003;71206;48.564;-123.458;2023-11-18T01:51:13;25;21;
29062;PMS5003;71206;48.564;-123.458;2023-11-18T01:53:38;22;20;
29062;PMS5003;71206;48.564;-123.458;2023-11-18T01:56:03;16;13;
29062;PMS5003;71206;48.564;-123.458;2023-11-18T01:58:28;16;16;
29062;PMS5003;71206;48.564;-123.458;2023-11-18T02:00:54;18;17;
29062;PMS5003;71206;48.564;-123.458;2023-11-18T02:03:19;19;15;
29062;PMS5003;71206;48.564;-123.458;2023-11-18T02:05:44;18;17;
29062;PMS5003;71206;48.564;-123.458;2023-11-18T02:08:10;35;27;
29062;PMS5003;71206;48.564;-123.458;2023-11-18T02:10:35;23;21;
29062;PMS5003;71206;48.564;-123.458;2023-11-18T02:13:03;39;37;
29062;PMS5003;71206;48.564;-123.458;2023-11-18T02:15:26;46;44;
29062;PMS5003;71206;48.564;-123.458;2023-11-18T02:17:52;58;52;
29062;PMS5003;71206;48.564;-123.458;2023-11-18T02:20:17;59;53;
29062;PMS5003;71206;48.564;-123.458;2023-11-18T02:22:43;50;43;
29062;PMS5003;71206;48.564;-123.458;2023-11-18T02:25:08;42;37;
29062;PMS5003;71206;48.564;-123.458;2023-11-18T02:27:33;37;35;
29062;PMS5003;71206;48.564;-123.458;2023-11-18T02:29:59;41;37;
29062;PMS5003;71206;48.564;-123.458;2023-11-18T02:32:28;36;34;
29062;PMS5003;71206;48.564;-123.458;2023-11-18T02:34:52;38;34;
29062;PMS5003;71206;48.564;-123.458;2023-11-18T02:37:15;26;24;
29062;PMS5003;71206;48.564;-123.458;2023-11-18T02:39:42;25;25;
29062;PMS5003;71206;48.564;-123.458;2023-11-18T02:42:06;30;26;
29062;PMS5003;71206;48.564;-123.458;2023-11-18T02:44:31;38;31;
29062;PMS5003;71206;48.564;-123.458;2023-11-18T02:46:57;41;34;
29062;PMS5003;71206;48.564;-123.458;2023-11-18T02:49:22;51;39;
29062;PMS5003;71206;48.564;-123.458;2023-11-18T02:51:49;83;58;
29062;PMS5003;71206;48.564;-123.458;2023-11-18T02:54:15;89;75;
29062;PMS5003;71206;48.564;-123.458;2023-11-18T02:56:40;84;68;
29062;PMS5003;71206;48.564;-123.458;2023-11-18T02:59:05;55;50;
29062;PMS5003;71206;48.564;-123.458;2023-11-18T03:01:30;48;41;
29062;PMS5003;71206;48.564;-123.458;2023-11-18T03:03:56;51;45;
29062;PMS5003;71206;48.564;-123.458;2023-11-18T03:06:20;80;68;
29062;PMS5003;71206;48.564;-123.458;2023-11-18T03:08:47;76;71;
29062;PMS5003;71206;48.564;-123.458;2023-11-18T03:11:11;63;51;
29062;PMS5003;71206;48.564;-123.458;2023-11-18T03:13:38;56;50;
29062;PMS5003;71206;48.564;-123.458;2023-11-18T03:16:01;54;48;
29062;PMS5003;71206;48.564;-123.458;2023-11-18T03:18:27;42;40;
29062;PMS5003;71206;48.564;-123.458;2023-11-18T03:20:52;44;43;
29062;PMS5003;71206;48.564;-123.458;2023-11-18T03:23:18;48;45;
29062;PMS5003;71206;48.564;-123.458;2023-11-18T03:25:44;45;36;
29062;PMS5003;71206;48.564;-123.458;2023-11-18T03:28:09;58;51;
29062;PMS5003;71206;48.564;-123.458;2023-11-18T03:30:34;52;44;
29062;PMS5003;71206;48.564;-123.458;2023-11-18T03:33:00;68;62;
29062;PMS5003;71206;48.564;-123.458;2023-11-18T03:35:25;63;53;
29062;PMS5003;71206;48.564;-123.458;2023-11-18T03:37:51;54;50;
29062;PMS5003;71206;48.564;-123.458;2023-11-18T03:40:18;51;45;
29062;PMS5003;71206;48.564;-123.458;2023-11-18T03:42:42;52;47;
29062;PMS5003;71206;48.564;-123.458;2023-11-18T03:45:07;49;45;
29062;PMS5003;71206;48.564;-123.458;2023-11-18T03:47:32;46;42;
29062;PMS5003;71206;48.564;-123.458;2023-11-18T03:49:58;46;43;
29062;PMS5003;71206;48.564;-123.458;2023-11-18T03:52:23;53;44;
29062;PMS5003;71206;48.564;-123.458;2023-11-18T03:54:49;48;42;
29062;PMS5003;71206;48.564;-123.458;2023-11-18T03:57:14;44;40;
29062;PMS5003;71206;48.564;-123.458;2023-11-18T03:59:40;40;38;
29062;PMS5003;71206;48.564;-123.458;2023-11-18T04:02:07;65;60;
29062;PMS5003;71206;48.564;-123.458;2023-11-18T04:04:32;99;91;
29062;PMS5003;71206;48.564;-123.458;2023-11-18T04:06:57;87;75;
29062;PMS5003;71206;48.564;-123.458;2023-11-18T04:09:21;77;69;
29062;PMS5003;71206;48.564;-123.458;2023-11-18T04:11:47;112;99;
29062;PMS5003;71206;48.564;-123.458;2023-11-18T04:14:13;88;81;
29062;PMS5003;71206;48.564;-123.458;2023-11-18T04:16:39;87;78;
29062;PMS5003;71206;48.564;-123.458;2023-11-18T04:19:04;73;64;
29062;PMS5003;71206;48.564;-123.458;2023-11-18T04:21:30;66;59;
29062;PMS5003;71206;48.564;-123.458;2023-11-18T04:23:55;54;51;
29062;PMS5003;71206;48.564;-123.458;2023-11-18T04:26:20;52;48;
29062;PMS5003;71206;48.564;-123.458;2023-11-18T04:28:45;58;53;
29062;PMS5003;71206;48.564;-123.458;2023-11-18T04:31:10;54;50;
29062;PMS5003;71206;48.564;-123.458;2023-11-18T04:33:36;56;53;
29062;PMS5003;71206;48.564;-123.458;2023-11-18T04:36:02;67;57;
29062;PMS5003;71206;48.564;-123.458;2023-11-18T04:38:27;57;49;
29062;PMS5003;71206;48.564;-123.458;2023-11-18T04:40:53;75;69;
29062;PMS5003;71206;48.564;-123.458;2023-11-18T04:43:18;48;42;
29062;PMS5003;71206;48.564;-123.458;2023-11-18T04:45:44;39;38;
29062;PMS5003;71206;48.564;-123.458;2023-11-18T04:48:09;48;42;
29062;PMS5003;71206;48.564;-123.458;2023-11-18T04:50:36;35;33;
29062;PMS5003;71206;48.564;-123.458;2023-11-18T04:53:00;47;43;
29062;PMS5003;71206;48.564;-123.458;2023-11-18T04:55:26;56;47;
29062;PMS5003;71206;48.564;-123.458;2023-11-18T04:57:50;59;55;
29062;PMS5003;71206;48.564;-123.458;2023-11-18T05:00:16;55;52;
29062;PMS5003;71206;48.564;-123.458;2023-11-18T05:02:41;54;52;
29062;PMS5003;71206;48.564;-123.458;2023-11-18T05:05:09;56;52;
29062;PMS5003;71206;48.564;-123.458;2023-11-18T05:07:32;66;59;
29062;PMS5003;71206;48.564;-123.458;2023-11-18T05:09:58;57;48;
29062;PMS5003;71206;48.564;-123.458;2023-11-18T05:12:23;56;51;
29062;PMS5003;71206;48.564;-123.458;2023-11-18T05:14:48;57;51;
29062;PMS5003;71206;48.564;-123.458;2023-11-18T05:17:17;43;40;
29062;PMS5003;71206;48.564;-123.458;2023-11-18T05:19:39;48;46;
29062;PMS5003;71206;48.564;-123.458;2023-11-18T05:22:05;63;60;
29062;PMS5003;71206;48.564;-123.458;2023-11-18T05:24:31;54;51;
29062;PMS5003;71206;48.564;-123.458;2023-11-18T05:26:56;54;45;
29062;PMS5003;71206;48.564;-123.458;2023-11-18T05:29:21;64;56;
29062;PMS5003;71206;48.564;-123.458;2023-11-18T05:31:46;48;45;
29062;PMS5003;71206;48.564;-123.458;2023-11-18T05:34:12;60;52;
29062;PMS5003;71206;48.564;-123.458;2023-11-18T05:36:38;52;48;
29062;PMS5003;71206;48.564;-123.458;2023-11-18T05:39:03;58;52;
29062;PMS5003;71206;48.564;-123.458;2023-11-18T05:41:29;54;48;
29062;PMS5003;71206;48.564;-123.458;2023-11-18T05:43:58;62;53;
29062;PMS5003;71206;48.564;-123.458;2023-11-18T05:46:19;65;60;
29062;PMS5003;71206;48.564;-123.458;2023-11-18T05:48:46;69;57;
29062;PMS5003;71206;48.564;-123.458;2023-11-18T05:51:11;65;62;
29062;PMS5003;71206;48.564;-123.458;2023-11-18T05:53:39;68;57;
29062;PMS5003;71206;48.564;-123.458;2023-11-18T05:56:04;121;105;
29062;PMS5003;71206;48.564;-123.458;2023-11-18T05:58:28;133;114;
29062;PMS5003;71206;48.564;-123.458;2023-11-18T06:00:55;126;112;
29062;PMS5003;71206;48.564;-123.458;2023-11-18T06:03:18;141;118;
29062;PMS5003;71206;48.564;-123.458;2023-11-18T06:05:44;118;101;
29062;PMS5003;71206;48.564;-123.458;2023-11-18T06:08:10;142;116;
29062;PMS5003;71206;48.564;-123.458;2023-11-18T06:10:35;99;88;
29062;PMS5003;71206;48.564;-123.458;2023-11-18T06:13:01;106;92;
29062;PMS5003;71206;48.564;-123.458;2023-11-18T06:15:26;79;73;
29062;PMS5003;71206;48.564;-123.458;2023-11-18T06:17:51;81;69;
29062;PMS5003;71206;48.564;-123.458;2023-11-18T06:20:16;61;57;
29062;PMS5003;71206;48.564;-123.458;2023-11-18T06:22:43;55;50;
29062;PMS5003;71206;48.564;-123.458;2023-11-18T06:25:08;50;45;
29062;PMS5003;71206;48.564;-123.458;2023-11-18T06:27:33;50;45;
29062;PMS5003;71206;48.564;-123.458;2023-11-18T06:29:58;45;40;
29062;PMS5003;71206;48.564;-123.458;2023-11-18T06:32:23;40;37;
29062;PMS5003;71206;48.564;-123.458;2023-11-18T06:34:49;37;32;
29062;PMS5003;71206;48.564;-123.458;2023-11-18T06:37:14;33;32;
29062;PMS5003;71206;48.564;-123.458;2023-11-18T06:39:41;36;36;
29062;PMS5003;71206;48.564;-123.458;2023-11-18T06:42:05;33;31;
29062;PMS5003;71206;48.564;-123.458;2023-11-18T06:44:31;38;37;
29062;PMS5003;71206;48.564;-123.458;2023-11-18T06:46:56;64;56;
29062;PMS5003;71206;48.564;-123.458;2023-11-18T06:49:21;57;49;
29062;PMS5003;71206;48.564;-123.458;2023-11-18T06:51:47;79;62;
29062;PMS5003;71206;48.564;-123.458;2023-11-18T06:54:12;81;73;
29062;PMS5003;71206;48.564;-123.458;2023-11-18T06:56:38;80;67;
29062;PMS5003;71206;48.564;-123.458;2023-11-18T06:59:03;93;69;
29062;PMS5003;71206;48.564;-123.458;2023-11-18T07:01:30;84;69;
29062;PMS5003;71206;48.564;-123.458;2023-11-18T07:03:53;77;67;
29062;PMS5003;71206;48.564;-123.458;2023-11-18T07:06:20;63;56;
29062;PMS5003;71206;48.564;-123.458;2023-11-18T07:08:45;71;63;
29062;PMS5003;71206;48.564;-123.458;2023-11-18T07:11:10;62;57;
29062;PMS5003;71206;48.564;-123.458;2023-11-18T07:13:36;62;56;
29062;PMS5003;71206;48.564;-123.458;2023-11-18T07:16:01;63;58;
29062;PMS5003;71206;48.564;-123.458;2023-11-18T07:18:28;70;61;
29062;PMS5003;71206;48.564;-123.458;2023-11-18T07:20:54;61;57;
29062;PMS5003;71206;48.564;-123.458;2023-11-18T07:23:19;54;50;
29062;PMS5003;71206;48.564;-123.458;2023-11-18T07:25:44;57;52;
29062;PMS5003;71206;48.564;-123.458;2023-11-18T07:28:09;66;61;
29062;PMS5003;71206;48.564;-123.458;2023-11-18T07:30:34;46;40;
29062;PMS5003;71206;48.564;-123.458;2023-11-18T07:33:00;46;41;
29062;PMS5003;71206;48.564;-123.458;2023-11-18T07:35:27;43;37;
29062;PMS5003;71206;48.564;-123.458;2023-11-18T07:37:51;40;37;
29062;PMS5003;71206;48.564;-123.458;2023-11-18T07:40:17;33;31;
29062;PMS5003;71206;48.564;-123.458;2023-11-18T07:42:42;43;35;
29062;PMS5003;71206;48.564;-123.458;2023-11-18T07:45:08;33;33;
29062;PMS5003;71206;48.564;-123.458;2023-11-18T07:47:34;33;32;
29062;PMS5003;71206;48.564;-123.458;2023-11-18T07:50:00;26;24;
29062;PMS5003;71206;48.564;-123.458;2023-11-18T07:52:25;33;29;
29062;PMS5003;71206;48.564;-123.458;2023-11-18T07:54:51;46;44;
29062;PMS5003;71206;48.564;-123.458;2023-11-18T07:57:16;54;52;
29062;PMS5003;71206;48.564;-123.458;2023-11-18T07:59:42;39;32;
29062;PMS5003;71206;48.564;-123.458;2023-11-18T08:02:08;32;30;
29062;PMS5003;71206;48.564;-123.458;2023-11-18T08:04:33;27;27;
29062;PMS5003;71206;48.564;-123.458;2023-11-18T08:06:59;36;36;
29062;PMS5003;71206;48.564;-123.458;2023-11-18T08:09:24;44;43;
29062;PMS5003;71206;48.564;-123.458;2023-11-18T08:11:49;53;52;
29062;PMS5003;71206;48.564;-123.458;2023-11-18T08:14:14;44;43;
29062;PMS5003;71206;48.564;-123.458;2023-11-18T08:16:39;39;37;
29062;PMS5003;71206;48.564;-123.458;2023-11-18T08:19:04;62;61;
29062;PMS5003;71206;48.564;-123.458;2023-11-18T08:21:31;27;26;
29062;PMS5003;71206;48.564;-123.458;2023-11-18T08:23:56;31;27;
29062;PMS5003;71206;48.564;-123.458;2023-11-18T08:26:22;49;43;
29062;PMS5003;71206;48.564;-123.458;2023-11-18T08:28:47;43;40;
29062;PMS5003;71206;48.564;-123.458;2023-11-18T08:31:13;52;44;
29062;PMS5003;71206;48.564;-123.458;2023-11-18T08:33:37;54;50;
29062;PMS5003;71206;48.564;-123.458;2023-11-18T08:36:03;37;32;
29062;PMS5003;71206;48.564;-123.458;2023-11-18T08:38:28;40;36;
29062;PMS5003;71206;48.564;-123.458;2023-11-18T08:40:54;49;45;
29062;PMS5003;71206;48.564;-123.458;2023-11-18T08:43:19;52;52;
29062;PMS5003;71206;48.564;-123.458;2023-11-18T08:45:44;40;39;
29062;PMS5003;71206;48.564;-123.458;2023-11-18T08:48:10;54;52;
29062;PMS5003;71206;48.564;-123.458;2023-11-18T08:50:36;31;26;
29062;PMS5003;71206;48.564;-123.458;2023-11-18T08:53:01;35;31;
29062;PMS5003;71206;48.564;-123.458;2023-11-18T08:55:28;50;49;
29062;PMS5003;71206;48.564;-123.458;2023-11-18T08:57:53;43;40;
29062;PMS5003;71206;48.564;-123.458;2023-11-18T09:00:18;48;46;
29062;PMS5003;71206;48.564;-123.458;2023-11-18T09:02:48;46;46;
29062;PMS5003;71206;48.564;-123.458;2023-11-18T09:05:09;32;31;
29062;PMS5003;71206;48.564;-123.458;2023-11-18T09:07:35;34;30;
29062;PMS5003;71206;48.564;-123.458;2023-11-18T09:10:01;63;60;
29062;PMS5003;71206;48.564;-123.458;2023-11-18T09:12:25;80;79;
29062;PMS5003;71206;48.564;-123.458;2023-11-18T09:14:51;65;62;
29062;PMS5003;71206;48.564;-123.458;2023-11-18T09:17:17;75;72;
29062;PMS5003;71206;48.564;-123.458;2023-11-18T09:19:42;37;36;
29062;PMS5003;71206;48.564;-123.458;2023-11-18T09:22:06;33;30;
29062;PMS5003;71206;48.564;-123.458;2023-11-18T09:24:32;49;49;
29062;PMS5003;71206;48.564;-123.458;2023-11-18T09:26:57;39;37;
29062;PMS5003;71206;48.564;-123.458;2023-11-18T09:29:23;92;90;
29062;PMS5003;71206;48.564;-123.458;2023-11-18T09:31:49;163;157;
29062;PMS5003;71206;48.564;-123.458;2023-11-18T09:34:14;99;92;
29062;PMS5003;71206;48.564;-123.458;2023-11-18T09:36:40;92;91;
29062;PMS5003;71206;48.564;-123.458;2023-11-18T09:39:06;62;60;
29062;PMS5003;71206;48.564;-123.458;2023-11-18T09:41:31;58;57;
29062;PMS5003;71206;48.564;-123.458;2023-11-18T09:43:56;29;27;
29062;PMS5003;71206;48.564;-123.458;2023-11-18T09:46:22;42;37;
29062;PMS5003;71206;48.564;-123.458;2023-11-18T09:48:48;43;39;
29062;PMS5003;71206;48.564;-123.458;2023-11-18T09:51:19;35;32;
29062;PMS5003;71206;48.564;-123.458;2023-11-18T09:53:39;46;44;
29062;PMS5003;71206;48.564;-123.458;2023-11-18T09:56:07;73;70;
29062;PMS5003;71206;48.564;-123.458;2023-11-18T09:58:32;58;53;
29062;PMS5003;71206;48.564;-123.458;2023-11-18T10:00:58;31;30;
29062;PMS5003;71206;48.564;-123.458;2023-11-18T10:03:20;28;28;
29062;PMS5003;71206;48.564;-123.458;2023-11-18T10:05:45;37;35;
29062;PMS5003;71206;48.564;-123.458;2023-11-18T10:08:11;31;27;
29062;PMS5003;71206;48.564;-123.458;2023-11-18T10:10:37;29;27;
29062;PMS5003;71206;48.564;-123.458;2023-11-18T10:13:04;32;30;
29062;PMS5003;71206;48.564;-123.458;2023-11-18T10:15:27;39;37;
29062;PMS5003;71206;48.564;-123.458;2023-11-18T10:17:52;51;46;
29062;PMS5003;71206;48.564;-123.458;2023-11-18T10:20:17;41;37;
29062;PMS5003;71206;48.564;-123.458;2023-11-18T10:22:43;32;31;
29062;PMS5003;71206;48.564;-123.458;2023-11-18T10:25:08;48;45;
29062;PMS5003;71206;48.564;-123.458;2023-11-18T10:27:34;35;33;
29062;PMS5003;71206;48.564;-123.458;2023-11-18T10:30:01;27;24;
29062;PMS5003;71206;48.564;-123.458;2023-11-18T10:32:24;28;27;
29062;PMS5003;71206;48.564;-123.458;2023-11-18T10:34:49;34;33;
29062;PMS5003;71206;48.564;-123.458;2023-11-18T10:37:15;23;22;
29062;PMS5003;71206;48.564;-123.458;2023-11-18T10:39:41;36;33;
29062;PMS5003;71206;48.564;-123.458;2023-11-18T10:42:05;24;24;
29062;PMS5003;71206;48.564;-123.458;2023-11-18T10:44:31;22;20;
29062;PMS5003;71206;48.564;-123.458;2023-11-18T10:46:56;23;22;
29062;PMS5003;71206;48.564;-123.458;2023-11-18T10:49:21;27;24;
29062;PMS5003;71206;48.564;-123.458;2023-11-18T10:51:47;25;20;
29062;PMS5003;71206;48.564;-123.458;2023-11-18T10:54:14;19;19;
29062;PMS5003;71206;48.564;-123.458;2023-11-18T10:56:38;18;18;
29062;PMS5003;71206;48.564;-123.458;2023-11-18T10:59:04;24;23;
29062;PMS5003;71206;48.564;-123.458;2023-11-18T11:01:29;24;20;
29062;PMS5003;71206;48.564;-123.458;2023-11-18T11:03:54;20;18;
29062;PMS5003;71206;48.564;-123.458;2023-11-18T11:06:19;26;24;
29062;PMS5003;71206;48.564;-123.458;2023-11-18T11:08:45;31;27;
29062;PMS5003;71206;48.564;-123.458;2023-11-18T11:11:11;37;34;
29062;PMS5003;71206;48.564;-123.458;2023-11-18T11:13:35;24;23;
29062;PMS5003;71206;48.564;-123.458;2023-11-18T11:16:01;35;35;
29062;PMS5003;71206;48.564;-123.458;2023-11-18T11:18:27;27;26;
29062;PMS5003;71206;48.564;-123.458;2023-11-18T11:20:56;22;20;
29062;PMS5003;71206;48.564;-123.458;2023-11-18T11:23:20;41;37;
29062;PMS5003;71206;48.564;-123.458;2023-11-18T11:25:46;42;41;
29062;PMS5003;71206;48.564;-123.458;2023-11-18T11:28:10;53;50;
29062;PMS5003;71206;48.564;-123.458;2023-11-18T11:30:37;41;40;
29062;PMS5003;71206;48.564;-123.458;2023-11-18T11:33:01;45;42;
29062;PMS5003;71206;48.564;-123.458;2023-11-18T11:35:27;45;44;
29062;PMS5003;71206;48.564;-123.458;2023-11-18T11:37:52;43;41;
29062;PMS5003;71206;48.564;-123.458;2023-11-18T11:40:16;54;50;
29062;PMS5003;71206;48.564;-123.458;2023-11-18T11:42:42;24;20;
29062;PMS5003;71206;48.564;-123.458;2023-11-18T11:45:08;32;32;
29062;PMS5003;71206;48.564;-123.458;2023-11-18T11:47:33;42;41;
29062;PMS5003;71206;48.564;-123.458;2023-11-18T11:50:00;18;15;
29062;PMS5003;71206;48.564;-123.458;2023-11-18T11:52:26;27;25;
29062;PMS5003;71206;48.564;-123.458;2023-11-18T11:54:52;28;24;
29062;PMS5003;71206;48.564;-123.458;2023-11-18T11:57:16;23;23;
29062;PMS5003;71206;48.564;-123.458;2023-11-18T12:02:06;20;19;
29062;PMS5003;71206;48.564;-123.458;2023-11-18T12:04:31;20;16;
29062;PMS5003;71206;48.564;-123.458;2023-11-18T12:06:57;31;28;
29062;PMS5003;71206;48.564;-123.458;2023-11-18T12:09:22;35;31;
29062;PMS5003;71206;48.564;-123.458;2023-11-18T12:11:48;23;23;
29062;PMS5003;71206;48.564;-123.458;2023-11-18T12:14:14;31;31;
29062;PMS5003;71206;48.564;-123.458;2023-11-18T12:28:48;25;24;
29062;PMS5003;71206;48.564;-123.458;2023-11-18T12:31:10;28;27;
29062;PMS5003;71206;48.564;-123.458;2023-11-18T12:38:35;23;22;
29062;PMS5003;71206;48.564;-123.458;2023-11-18T12:40:53;26;23;
29062;PMS5003;71206;48.564;-123.458;2023-11-18T12:43:18;19;18;
29062;PMS5003;71206;48.564;-123.458;2023-11-18T12:45:44;25;24;
29062;PMS5003;71206;48.564;-123.458;2023-11-18T12:48:09;20;16;
29062;PMS5003;71206;48.564;-123.458;2023-11-18T12:50:34;29;28;
29062;PMS5003;71206;48.564;-123.458;2023-11-18T12:52:59;24;24;
29062;PMS5003;71206;48.564;-123.458;2023-11-18T12:55:25;23;22;
29062;PMS5003;71206;48.564;-123.458;2023-11-18T12:57:51;53;52;
29062;PMS5003;71206;48.564;-123.458;2023-11-18T13:00:16;62;61;
29062;PMS5003;71206;48.564;-123.458;2023-11-18T13:02:41;97;96;
29062;PMS5003;71206;48.564;-123.458;2023-11-18T13:05:07;48;46;
29062;PMS5003;71206;48.564;-123.458;2023-11-18T13:07:36;30;30;
29062;PMS5003;71206;48.564;-123.458;2023-11-18T13:09:58;19;18;
29062;PMS5003;71206;48.564;-123.458;2023-11-18T13:12:24;33;32;
29062;PMS5003;71206;48.564;-123.458;2023-11-18T13:14:49;37;34;
29062;PMS5003;71206;48.564;-123.458;2023-11-18T13:17:15;15;14;
29062;PMS5003;71206;48.564;-123.458;2023-11-18T13:19:40;31;31;
29062;PMS5003;71206;48.564;-123.458;2023-11-18T13:22:06;32;32;
29062;PMS5003;71206;48.564;-123.458;2023-11-18T13:24:31;83;83;
29062;PMS5003;71206;48.564;-123.458;2023-11-18T13:26:57;45;44;
29062;PMS5003;71206;48.564;-123.458;2023-11-18T13:29:23;22;22;
29062;PMS5003;71206;48.564;-123.458;2023-11-18T13:31:48;37;37;
29062;PMS5003;71206;48.564;-123.458;2023-11-18T13:34:13;47;47;
29062;PMS5003;71206;48.564;-123.458;2023-11-18T13:36:39;41;40;
29062;PMS5003;71206;48.564;-123.458;2023-11-18T13:39:05;46;45;
29062;PMS5003;71206;48.564;-123.458;2023-11-18T13:41:30;46;44;
29062;PMS5003;71206;48.564;-123.458;2023-11-18T13:43:56;87;86;
29062;PMS5003;71206;48.564;-123.458;2023-11-18T13:46:22;22;20;
29062;PMS5003;71206;48.564;-123.458;2023-11-18T13:48:47;20;18;
29062;PMS5003;71206;48.564;-123.458;2023-11-18T13:51:13;62;62;
29062;PMS5003;71206;48.564;-123.458;2023-11-18T13:53:38;66;65;
29062;PMS5003;71206;48.564;-123.458;2023-11-18T13:56:04;28;27;
29062;PMS5003;71206;48.564;-123.458;2023-11-18T13:58:28;43;43;
29062;PMS5003;71206;48.564;-123.458;2023-11-18T14:00:53;52;49;
29062;PMS5003;71206;48.564;-123.458;2023-11-18T14:03:18;67;65;
29062;PMS5003;71206;48.564;-123.458;2023-11-18T14:05:44;23;20;
29062;PMS5003;71206;48.564;-123.458;2023-11-18T14:08:10;22;20;
29062;PMS5003;71206;48.564;-123.458;2023-11-18T14:10:35;57;55;
29062;PMS5003;71206;48.564;-123.458;2023-11-18T14:13:02;34;34;
29062;PMS5003;71206;48.564;-123.458;2023-11-18T14:15:26;53;53;
29062;PMS5003;71206;48.564;-123.458;2023-11-18T14:17:51;38;36;
29062;PMS5003;71206;48.564;-123.458;2023-11-18T14:20:16;98;94;
29062;PMS5003;71206;48.564;-123.458;2023-11-18T14:22:41;36;36;
29062;PMS5003;71206;48.564;-123.458;2023-11-18T14:25:07;22;22;
29062;PMS5003;71206;48.564;-123.458;2023-11-18T14:27:33;21;18;
29062;PMS5003;71206;48.564;-123.458;2023-11-18T14:29:59;114;113;
29062;PMS5003;71206;48.564;-123.458;2023-11-18T14:32:24;48;48;
29062;PMS5003;71206;48.564;-123.458;2023-11-18T14:34:50;28;24;
29062;PMS5003;71206;48.564;-123.458;2023-11-18T14:37:15;107;105;
29062;PMS5003;71206;48.564;-123.458;2023-11-18T14:39:40;94;94;
29062;PMS5003;71206;48.564;-123.458;2023-11-18T14:42:05;58;57;
29062;PMS5003;71206;48.564;-123.458;2023-11-18T14:44:30;90;89;
29062;PMS5003;71206;48.564;-123.458;2023-11-18T14:46:56;53;48;
29062;PMS5003;71206;48.564;-123.458;2023-11-18T14:49:21;33;31;
29062;PMS5003;71206;48.564;-123.458;2023-11-18T14:51:50;44;38;
29062;PMS5003;71206;48.564;-123.458;2023-11-18T14:54:12;70;69;
29062;PMS5003;71206;48.564;-123.458;2023-11-18T14:56:38;38;38;
29062;PMS5003;71206;48.564;-123.458;2023-11-18T14:59:03;105;103;
29062;PMS5003;71206;48.564;-123.458;2023-11-18T15:01:29;87;87;
29062;PMS5003;71206;48.564;-123.458;2023-11-18T15:03:55;45;45;
29062;PMS5003;71206;48.564;-123.458;2023-11-18T15:06:24;35;30;
29062;PMS5003;71206;48.564;-123.458;2023-11-18T15:08:45;26;24;
29062;PMS5003;71206;48.564;-123.458;2023-11-18T15:11:11;14;13;
29062;PMS5003;71206;48.564;-123.458;2023-11-18T15:13:36;14;14;
29062;PMS5003;71206;48.564;-123.458;2023-11-18T15:16:02;23;22;
29062;PMS5003;71206;48.564;-123.458;2023-11-18T15:18:27;25;25;
29062;PMS5003;71206;48.564;-123.458;2023-11-18T15:20:53;13;13;
29062;PMS5003;71206;48.564;-123.458;2023-11-18T15:23:18;10;9;
29062;PMS5003;71206;48.564;-123.458;2023-11-18T15:25:44;31;31;
29062;PMS5003;71206;48.564;-123.458;2023-11-18T15:28:11;23;23;
29062;PMS5003;71206;48.564;-123.458;2023-11-18T15:30:34;29;29;
29062;PMS5003;71206;48.564;-123.458;2023-11-18T15:33:00;47;42;
29062;PMS5003;71206;48.564;-123.458;2023-11-18T15:35:27;35;32;
29062;PMS5003;71206;48.564;-123.458;2023-11-18T15:37:50;44;40;